createdAt,value
2019-05-05T00:01:56.183Z,95893.61
2019-05-05T00:04:41.442Z,95898.70
2019-05-05T00:07:08.796Z,95894.56
2019-05-05T00:09:35.860Z,95888.97
2019-05-05T00:12:14.726Z,95898.27
2019-05-05T00:14:44.235Z,95905.72
2019-05-05T00:17:16.836Z,95908.55
2019-05-05T00:19:45.432Z,95915.09
2019-05-05T00:22:15.110Z,95910.73
2019-05-05T00:24:44.356Z,95914.91
2019-05-05T00:27:11.554Z,95915.95
2019-05-05T00:29:38.615Z,95925.12
2019-05-05T00:32:05.744Z,95928.84
2019-05-05T00:34:34.949Z,95926.25
2019-05-05T00:37:04.453Z,95925.61
2019-05-05T00:39:31.730Z,95923.46
2019-05-05T00:41:58.958Z,95930.79
2019-05-05T00:44:26.051Z,95928.98
2019-05-05T00:46:54.999Z,95935.75
2019-05-05T00:49:25.034Z,95933.27
2019-05-05T00:51:54.678Z,95936.20
2019-05-05T00:54:24.293Z,95928.31
2019-05-05T00:56:51.370Z,95931.24
2019-05-05T00:59:20.562Z,95933.39
2019-05-05T01:01:59.687Z,95931.58
2019-05-05T01:04:45.348Z,95938.45
2019-05-05T01:07:14.304Z,95943.22
2019-05-05T01:09:42.231Z,95951.80
2019-05-05T01:12:10.591Z,95952.05
2019-05-05T01:14:37.985Z,95947.64
2019-05-05T01:17:05.409Z,95953.42
2019-05-05T01:19:34.971Z,95947.56
2019-05-05T01:22:04.825Z,95955.45
2019-05-05T01:24:31.899Z,95961.53
2019-05-05T01:26:59.507Z,95961.11
2019-05-05T01:29:26.643Z,95972.59
2019-05-05T01:31:55.744Z,95967.06
2019-05-05T01:34:24.377Z,95966.75
2019-05-05T01:36:54.399Z,95978.13
2019-05-05T01:39:28.452Z,95975.11
2019-05-05T01:41:57.634Z,95985.80
2019-05-05T01:44:24.810Z,95987.06
2019-05-05T01:46:51.814Z,95980.97
2019-05-05T01:49:19.144Z,95986.63
2019-05-05T01:51:46.476Z,95985.67
2019-05-05T01:54:14.454Z,95991.09
2019-05-05T01:56:41.985Z,95997.06
2019-05-05T01:59:09.670Z,95994.70
2019-05-05T02:01:36.775Z,95995.93
2019-05-05T02:04:05.491Z,96000.74
2019-05-05T02:06:34.904Z,96002.78
2019-05-05T02:09:05.295Z,96000.05
2019-05-05T02:11:35.171Z,96003.16
2019-05-05T02:14:02.134Z,96009.91
2019-05-05T02:16:29.049Z,96019.90
2019-05-05T02:18:56.449Z,96021.67
2019-05-05T02:21:24.741Z,96024.82
2019-05-05T02:23:52.080Z,96030.08
2019-05-05T02:26:19.521Z,96035.92
2019-05-05T02:28:48.722Z,96043.88
2019-05-05T02:31:21.393Z,96045.35
2019-05-05T02:33:49.030Z,96039.70
2019-05-05T02:36:16.597Z,96037.42
2019-05-05T02:38:46.183Z,96038.66
2019-05-05T02:41:15.511Z,96038.42
2019-05-05T02:43:44.983Z,96041.00
2019-05-05T02:46:27.345Z,96040.80
2019-05-05T02:48:58.040Z,96050.09
2019-05-05T02:51:27.643Z,96055.34
2019-05-05T02:53:58.467Z,96056.81
2019-05-05T02:56:35.224Z,96066.66
2019-05-05T02:59:06.554Z,96064.41
2019-05-05T03:01:34.478Z,96064.81
2019-05-05T03:04:04.077Z,96071.68
2019-05-05T03:06:31.580Z,96073.44
2019-05-05T03:09:00.000Z,96070.47
2019-05-05T03:11:31.031Z,96082.13
2019-05-05T03:14:03.964Z,96077.73
2019-05-05T03:16:35.463Z,96078.48
2019-05-05T03:19:04.663Z,96079.12
2019-05-05T03:21:33.516Z,96086.98
2019-05-05T03:24:01.043Z,96080.67
2019-05-05T03:26:28.567Z,96084.00
2019-05-05T03:28:58.267Z,96086.89
2019-05-05T03:31:26.590Z,96091.58
2019-05-05T03:33:55.222Z,96093.23
2019-05-05T03:36:24.459Z,96101.44
2019-05-05T03:38:53.622Z,96109.28
2019-05-05T03:41:24.832Z,96110.39
2019-05-05T03:44:09.116Z,96115.78
2019-05-05T03:46:36.855Z,96114.91
2019-05-05T03:49:04.895Z,96122.09
2019-05-05T03:51:34.373Z,96118.30
2019-05-05T03:54:04.143Z,96126.61
2019-05-05T03:56:31.391Z,96132.00
2019-05-05T03:58:59.679Z,96133.12
2019-05-05T04:01:37.394Z,96137.48
2019-05-05T04:04:24.483Z,96139.17
2019-05-05T04:07:01.822Z,96142.73
2019-05-05T04:09:29.155Z,96148.36
2019-05-05T04:11:56.756Z,96143.61
2019-05-05T04:14:25.058Z,96146.94
2019-05-05T04:17:11.033Z,96150.98
2019-05-05T04:19:44.503Z,96154.34
2019-05-05T04:22:13.545Z,96161.31
2019-05-05T04:24:40.871Z,96164.01
2019-05-05T04:27:08.228Z,96168.49
2019-05-05T04:29:35.276Z,96177.16
2019-05-05T04:32:04.457Z,96177.24
2019-05-05T04:34:31.332Z,96170.03
2019-05-05T04:36:58.555Z,96177.08
2019-05-05T04:39:25.919Z,96171.45
2019-05-05T04:41:54.557Z,96174.14
2019-05-05T04:44:23.529Z,96183.92
2019-05-05T04:46:54.617Z,96188.83
2019-05-05T04:49:26.227Z,96192.88
2019-05-05T04:51:55.239Z,96193.19
2019-05-05T04:54:27.120Z,96201.75
2019-05-05T04:56:54.443Z,96192.88
2019-05-05T04:59:23.398Z,96194.22
2019-05-05T05:01:54.459Z,96202.55
2019-05-05T05:04:33.646Z,96212.77
2019-05-05T05:07:04.594Z,96208.62
2019-05-05T05:09:34.044Z,96204.50
2019-05-05T05:12:01.284Z,96213.63
2019-05-05T05:14:28.727Z,96222.50
2019-05-05T05:16:58.209Z,96230.27
2019-05-05T05:19:25.115Z,96227.78
2019-05-05T05:22:01.345Z,96230.72
2019-05-05T05:24:23.832Z,96233.10
2019-05-05T05:26:51.274Z,96241.42
2019-05-05T05:37:59.315Z,96250.78
2019-05-05T05:40:30.103Z,96253.39
2019-05-05T05:43:00.411Z,96256.08
2019-05-05T05:45:29.825Z,96250.48
2019-05-05T05:47:56.768Z,96258.78
2019-05-05T05:50:25.584Z,96257.67
2019-05-05T05:52:54.051Z,96263.30
2019-05-05T05:55:21.290Z,96264.02
2019-05-05T05:57:48.527Z,96269.17
2019-05-05T06:00:16.576Z,96271.07
2019-05-05T06:02:44.110Z,96276.14
2019-05-05T06:05:11.475Z,96280.43
2019-05-05T06:07:38.507Z,96282.09
2019-05-05T06:10:06.567Z,96298.19
2019-05-05T06:12:33.765Z,96301.09
2019-05-05T06:15:00.819Z,96295.70
2019-05-05T06:17:27.851Z,96299.06
2019-05-05T06:19:54.847Z,96302.93
2019-05-05T06:22:28.553Z,96303.24
2019-05-05T06:24:50.635Z,96304.37
2019-05-05T06:27:17.554Z,96304.37
2019-05-05T06:29:45.095Z,96310.88
2019-05-05T06:32:14.492Z,96309.53
2019-05-05T06:34:41.423Z,96308.18
2019-05-05T06:37:08.909Z,96323.94
2019-05-05T06:39:35.963Z,96321.97
2019-05-05T06:42:20.030Z,96322.90
2019-05-05T06:44:48.955Z,96323.62
2019-05-05T06:47:17.764Z,96330.73
2019-05-05T06:49:44.699Z,96331.70
2019-05-05T06:52:11.575Z,96326.38
2019-05-05T06:54:38.813Z,96329.55
2019-05-05T06:57:05.915Z,96332.73
2019-05-05T06:59:34.969Z,96330.80
2019-05-05T07:02:04.054Z,96336.04
2019-05-05T07:04:31.107Z,96339.22
2019-05-05T07:06:58.235Z,96334.27
2019-05-05T07:09:25.182Z,96342.05
2019-05-05T07:11:54.105Z,96351.55
2019-05-05T07:14:23.502Z,96349.95
2019-05-05T07:16:50.432Z,96342.16
2019-05-05T07:19:17.449Z,96349.91
2019-05-05T07:21:44.601Z,96342.34
2019-05-05T07:24:11.690Z,96346.44
2019-05-05T07:26:39.046Z,96346.73
2019-05-05T07:29:06.038Z,96340.06
2019-05-05T07:31:34.263Z,96345.27
2019-05-05T07:34:01.723Z,96345.98
2019-05-05T07:36:33.895Z,96353.41
2019-05-05T07:39:00.508Z,96346.58
2019-05-05T07:41:27.603Z,96354.60
2019-05-05T07:43:54.442Z,96359.81
2019-05-05T07:46:21.337Z,96366.13
2019-05-05T07:48:48.606Z,96372.24
2019-05-05T07:51:15.925Z,96368.11
2019-05-05T07:53:44.280Z,96370.70
2019-05-05T07:56:11.411Z,96377.45
2019-05-05T07:58:38.635Z,96378.59
2019-05-05T08:01:05.731Z,96374.07
2019-05-05T08:03:33.886Z,96376.77
2019-05-05T08:06:01.195Z,96384.55
2019-05-05T08:08:28.204Z,96382.64
2019-05-05T08:10:55.620Z,96386.34
2019-05-05T08:13:24.308Z,96389.84
2019-05-05T08:15:59.701Z,96392.55
2019-05-05T08:18:31.651Z,96393.34
2019-05-05T08:21:06.713Z,96389.40
2019-05-05T08:23:41.883Z,96392.97
2019-05-05T08:26:15.070Z,96391.06
2019-05-05T08:28:47.579Z,96396.59
2019-05-05T08:31:16.717Z,96393.97
2019-05-05T08:33:44.270Z,96397.83
2019-05-05T08:36:12.114Z,96388.17
2019-05-05T08:38:39.156Z,96401.28
2019-05-05T08:41:06.401Z,96401.64
2019-05-05T08:43:34.743Z,96401.00
2019-05-05T08:46:01.953Z,96401.13
2019-05-05T08:48:29.162Z,96403.89
2019-05-05T08:50:56.261Z,96401.78
2019-05-05T08:53:24.293Z,96409.80
2019-05-05T08:55:51.559Z,96409.13
2019-05-05T08:58:18.929Z,96403.73
2019-05-05T09:00:45.923Z,96412.11
2019-05-05T09:03:14.004Z,96409.79
2019-05-05T09:05:41.183Z,96418.45
2019-05-05T09:08:08.126Z,96421.05
2019-05-05T09:10:35.091Z,96410.94
2019-05-05T09:13:03.759Z,96416.17
2019-05-05T09:15:30.836Z,96414.02
2019-05-05T09:17:57.867Z,96419.44
2019-05-05T09:20:24.863Z,96420.78
2019-05-05T09:22:53.565Z,96422.25
2019-05-05T09:25:31.632Z,96421.75
2019-05-05T09:28:09.467Z,96428.36
2019-05-05T09:30:39.869Z,96433.97
2019-05-05T09:33:07.079Z,96430.80
2019-05-05T09:35:34.263Z,96430.00
2019-05-05T09:38:03.869Z,96423.12
2019-05-05T09:40:37.441Z,96427.73
2019-05-05T09:43:06.142Z,96435.92
2019-05-05T09:45:34.187Z,96430.64
2019-05-05T09:48:01.226Z,96426.34
2019-05-05T09:50:28.442Z,96427.45
2019-05-05T09:52:55.387Z,96436.59
2019-05-05T09:55:24.177Z,96429.28
2019-05-05T09:57:51.419Z,96435.48
2019-05-05T10:00:18.760Z,96435.69
2019-05-05T10:02:45.852Z,96437.59
2019-05-05T10:05:14.514Z,96435.69
2019-05-05T10:07:43.899Z,96440.30
2019-05-05T10:10:13.792Z,96442.05
2019-05-05T10:12:44.378Z,96442.52
2019-05-05T10:15:13.883Z,96433.50
2019-05-05T10:17:42.088Z,96437.70
2019-05-05T10:20:09.841Z,96443.91
2019-05-05T10:22:36.874Z,96444.23
2019-05-05T10:25:24.559Z,96452.89
2019-05-05T10:27:53.968Z,96451.06
2019-05-05T10:30:23.382Z,96450.63
2019-05-05T10:32:50.684Z,96456.03
2019-05-05T10:35:17.625Z,96447.22
2019-05-05T10:37:44.423Z,96455.32
2019-05-05T10:40:15.203Z,96453.97
2019-05-05T10:42:50.827Z,96459.38
2019-05-05T10:45:20.722Z,96467.96
2019-05-05T10:47:49.122Z,96470.11
2019-05-05T10:50:16.256Z,96464.14
2019-05-05T10:52:44.309Z,96462.00
2019-05-05T10:55:14.538Z,96459.84
2019-05-05T10:57:43.603Z,96466.93
2019-05-05T11:00:15.491Z,96467.48
2019-05-05T11:02:42.347Z,96465.58
2019-05-05T11:05:10.335Z,96466.38
2019-05-05T11:07:37.575Z,96464.78
2019-05-05T11:10:05.683Z,96465.58
2019-05-05T11:12:33.752Z,96465.34
2019-05-05T11:15:01.007Z,96472.89
2019-05-05T11:17:28.266Z,96464.08
2019-05-05T11:19:55.455Z,96470.15
2019-05-05T11:22:24.215Z,96465.38
2019-05-05T11:24:58.361Z,96474.92
2019-05-05T11:27:21.105Z,96470.42
2019-05-05T11:29:50.104Z,96480.20
2019-05-05T11:32:19.083Z,96475.91
2019-05-05T11:34:46.205Z,96485.84
2019-05-05T11:37:14.840Z,96479.33
2019-05-05T11:39:44.428Z,96478.42
2019-05-05T11:42:11.257Z,96476.67
2019-05-05T11:44:38.559Z,96488.19
2019-05-05T11:47:05.456Z,96484.34
2019-05-05T11:49:33.680Z,96481.28
2019-05-05T11:52:00.805Z,96475.95
2019-05-05T11:54:28.215Z,96480.44
2019-05-05T11:56:55.352Z,96484.09
2019-05-05T11:59:23.776Z,96478.02
2019-05-05T12:01:51.108Z,96480.16
2019-05-05T12:04:18.131Z,96486.67
2019-05-05T12:06:45.256Z,96480.00
2019-05-05T12:09:14.387Z,96488.90
2019-05-05T12:11:43.736Z,96483.50
2019-05-05T12:14:14.280Z,96481.27
2019-05-05T12:16:43.888Z,96481.95
2019-05-05T12:19:13.773Z,96485.37
2019-05-05T12:21:40.868Z,96483.78
2019-05-05T12:24:10.136Z,96482.43
2019-05-05T12:26:39.019Z,96486.16
2019-05-05T12:29:07.647Z,96490.45
2019-05-05T12:31:36.508Z,96487.99
2019-05-05T12:34:03.981Z,96491.94
2019-05-05T12:36:31.515Z,96486.45
2019-05-05T12:38:59.313Z,96493.68
2019-05-05T12:41:26.799Z,96487.95
2019-05-05T12:43:54.904Z,96496.70
2019-05-05T12:46:36.302Z,96490.27
2019-05-05T12:49:08.070Z,96487.87
2019-05-05T12:51:35.612Z,96500.76
2019-05-05T12:54:04.498Z,96498.38
2019-05-05T12:56:33.983Z,96499.96
2019-05-05T12:59:03.795Z,96500.44
2019-05-05T13:01:35.883Z,96500.36
2019-05-05T13:04:03.623Z,96495.63
2019-05-05T13:06:30.843Z,96496.23
2019-05-05T13:08:58.058Z,96499.80
2019-05-05T13:11:25.344Z,96497.41
2019-05-05T13:13:54.361Z,96494.73
2019-05-05T13:16:23.117Z,96489.05
2019-05-05T13:18:51.195Z,96487.17
2019-05-05T13:21:18.269Z,96492.84
2019-05-05T13:23:50.471Z,96487.70
2019-05-05T13:26:23.697Z,96486.82
2019-05-05T13:28:51.223Z,96494.29
2019-05-05T13:31:18.373Z,96487.77
2019-05-05T13:33:45.589Z,96486.20
2019-05-05T13:36:13.803Z,96484.84
2019-05-05T13:38:41.225Z,96485.52
2019-05-05T13:41:08.349Z,96486.23
2019-05-05T13:43:35.165Z,96481.61
2019-05-05T13:46:04.652Z,96476.99
2019-05-05T13:48:33.370Z,96480.72
2019-05-05T13:51:06.049Z,96486.14
2019-05-05T13:53:34.287Z,96479.93
2019-05-05T13:56:11.225Z,96483.44
2019-05-05T13:58:30.684Z,96488.82
2019-05-05T14:00:57.889Z,96484.14
2019-05-05T14:03:25.005Z,96488.88
2019-05-05T14:05:54.005Z,96483.70
2019-05-05T14:08:23.623Z,96483.70
2019-05-05T14:10:50.550Z,96481.00
2019-05-05T14:13:17.916Z,96483.23
2019-05-05T14:15:45.155Z,96487.77
2019-05-05T14:18:14.287Z,96485.27
2019-05-05T14:20:43.492Z,96487.32
2019-05-05T14:23:10.692Z,96484.38
2019-05-05T14:25:38.096Z,96481.91
2019-05-05T14:28:05.235Z,96478.08
2019-05-05T14:30:34.262Z,96483.03
2019-05-05T14:33:03.742Z,96488.11
2019-05-05T14:35:34.229Z,96487.79
2019-05-05T14:38:01.634Z,96486.44
2019-05-05T14:40:29.000Z,96491.23
2019-05-05T14:42:56.352Z,96487.06
2019-05-05T14:45:23.883Z,96480.94
2019-05-05T14:47:51.015Z,96478.00
2019-05-05T14:50:18.395Z,96485.47
2019-05-05T14:52:45.971Z,96482.11
2019-05-05T14:55:14.120Z,96485.00
2019-05-05T14:57:41.283Z,96481.27
2019-05-05T15:00:11.207Z,96482.53
2019-05-05T15:02:38.552Z,96486.27
2019-05-05T15:05:24.635Z,96486.17
2019-05-05T15:07:53.759Z,96490.23
2019-05-05T15:10:23.965Z,96481.00
2019-05-05T15:12:53.838Z,96482.79
2019-05-05T15:15:20.892Z,96477.94
2019-05-05T15:17:48.029Z,96479.29
2019-05-05T15:20:15.751Z,96478.97
2019-05-05T15:22:43.642Z,96487.09
2019-05-05T15:25:11.970Z,96481.32
2019-05-05T15:27:39.169Z,96485.70
2019-05-05T15:30:06.636Z,96486.59
2019-05-05T15:32:34.396Z,96486.34
2019-05-05T15:35:03.843Z,96486.11
2019-05-05T15:37:31.113Z,96483.77
2019-05-05T15:39:58.178Z,96490.61
2019-05-05T15:42:25.377Z,96493.73
2019-05-05T15:44:54.288Z,96488.31
2019-05-05T15:47:23.526Z,96490.02
2019-05-05T15:49:50.181Z,96486.61
2019-05-05T15:52:20.082Z,96485.73
2019-05-05T15:54:46.431Z,96485.73
2019-05-05T15:57:14.896Z,96482.41
2019-05-05T15:59:43.655Z,96489.60
2019-05-05T16:02:11.112Z,96493.10
2019-05-05T16:04:38.169Z,96498.03
2019-05-05T16:07:05.576Z,96493.19
2019-05-05T16:09:32.818Z,96491.59
2019-05-05T16:11:59.926Z,96495.02
2019-05-05T16:14:27.809Z,96488.25
2019-05-05T16:16:56.731Z,96497.72
2019-05-05T16:19:27.859Z,96497.48
2019-05-05T16:21:56.598Z,96495.02
2019-05-05T16:24:25.508Z,96501.34
2019-05-05T16:26:53.733Z,96499.11
2019-05-05T16:29:21.508Z,96494.64
2019-05-05T16:31:48.879Z,96502.08
2019-05-05T16:34:15.947Z,96498.02
2019-05-05T16:36:44.023Z,96494.64
2019-05-05T16:39:11.445Z,96487.17
2019-05-05T16:41:38.451Z,96493.22
2019-05-05T16:44:05.714Z,96496.01
2019-05-05T16:46:34.171Z,96498.88
2019-05-05T16:49:03.527Z,96507.78
2019-05-05T16:51:34.814Z,96503.26
2019-05-05T16:54:04.672Z,96498.25
2019-05-05T16:56:33.567Z,96505.09
2019-05-05T16:59:00.816Z,96505.41
2019-05-05T17:01:27.716Z,96507.01
2019-05-05T17:03:54.663Z,96502.51
2019-05-05T17:06:21.731Z,96498.86
2019-05-05T17:08:48.566Z,96512.84
2019-05-05T17:11:15.564Z,96521.19
2019-05-05T17:13:48.569Z,96518.58
2019-05-05T17:16:35.289Z,96514.84
2019-05-05T17:19:04.440Z,96521.03
2019-05-05T17:21:34.098Z,96528.35
2019-05-05T17:24:01.181Z,96525.17
2019-05-05T17:26:28.238Z,96519.64
2019-05-05T17:28:55.454Z,96523.33
2019-05-05T17:31:24.247Z,96529.61
2019-05-05T17:33:53.449Z,96527.55
2019-05-05T17:36:21.675Z,96528.77
2019-05-05T17:38:48.640Z,96531.79
2019-05-05T17:41:34.422Z,96537.98
2019-05-05T17:44:06.183Z,96541.73
2019-05-05T17:46:44.509Z,96547.02
2019-05-05T17:49:22.925Z,96546.47
2019-05-05T17:51:50.537Z,96545.30
2019-05-05T17:54:24.219Z,96553.17
2019-05-05T17:56:54.427Z,96551.34
2019-05-05T17:59:20.555Z,96550.55
2019-05-05T18:01:47.654Z,96552.45
2019-05-05T18:04:14.842Z,96558.05
2019-05-05T18:06:46.445Z,96553.03
2019-05-05T18:09:30.228Z,96553.70
2019-05-05T18:12:17.348Z,96566.97
2019-05-05T18:14:46.133Z,96559.10
2019-05-05T18:17:13.686Z,96569.19
2019-05-05T18:19:40.740Z,96571.44
2019-05-05T18:22:08.155Z,96572.80
2019-05-05T18:24:35.061Z,96572.55
2019-05-05T18:27:02.044Z,96571.44
2019-05-05T18:29:28.941Z,96581.91
2019-05-05T18:31:55.894Z,96575.70
2019-05-05T18:34:23.553Z,96579.76
2019-05-05T18:36:54.193Z,96588.10
2019-05-05T18:39:21.388Z,96589.70
2019-05-05T18:41:50.285Z,96588.58
2019-05-05T18:44:24.166Z,96586.98
2019-05-05T18:47:13.015Z,96589.45
2019-05-05T18:49:39.523Z,96590.80
2019-05-05T18:52:07.028Z,96584.61
2019-05-05T18:54:34.065Z,96586.30
2019-05-05T18:57:01.234Z,96587.41
2019-05-05T18:59:28.399Z,96591.70
2019-05-05T19:02:14.392Z,96588.77
2019-05-05T19:04:48.565Z,96588.52
2019-05-05T19:07:17.097Z,96591.47
2019-05-05T19:09:53.701Z,96596.63
2019-05-05T19:12:13.121Z,96594.48
2019-05-05T19:14:40.690Z,96593.44
2019-05-05T19:17:08.443Z,96592.89
2019-05-05T19:19:36.867Z,96588.67
2019-05-05T19:22:09.391Z,96585.52
2019-05-05T19:24:36.762Z,96595.77
2019-05-05T19:27:04.140Z,96593.86
2019-05-05T19:29:31.160Z,96589.88
2019-05-05T19:31:58.184Z,96588.30
2019-05-05T19:34:25.275Z,96587.73
2019-05-05T19:36:54.460Z,96590.20
2019-05-05T19:39:21.639Z,96595.60
2019-05-05T19:41:48.656Z,96595.60
2019-05-05T19:44:15.623Z,96589.09
2019-05-05T19:46:47.120Z,96591.23
2019-05-05T19:49:18.047Z,96595.22
2019-05-05T19:51:46.357Z,96590.37
2019-05-05T19:54:14.393Z,96592.03
2019-05-05T19:56:42.093Z,96590.20
2019-05-05T19:59:09.384Z,96585.22
2019-05-05T20:01:37.810Z,96591.00
2019-05-05T20:04:05.251Z,96584.33
2019-05-05T20:06:32.411Z,96589.42
2019-05-05T20:08:59.550Z,96588.55
2019-05-05T20:11:26.933Z,96587.52
2019-05-05T20:14:06.478Z,96592.13
2019-05-05T20:16:26.341Z,96593.47
2019-05-05T20:18:56.473Z,96589.35
2019-05-05T20:21:23.757Z,96592.61
2019-05-05T20:23:50.979Z,96592.05
2019-05-05T20:26:18.170Z,96592.36
2019-05-05T20:28:45.268Z,96586.17
2019-05-05T20:31:14.132Z,96585.06
2019-05-05T20:33:59.607Z,96585.86
2019-05-05T20:36:28.528Z,96580.94
2019-05-05T20:38:55.694Z,96587.93
2019-05-05T20:41:24.876Z,96588.86
2019-05-05T20:43:54.229Z,96596.34
2019-05-05T20:46:23.533Z,96592.53
2019-05-05T20:48:50.458Z,96593.22
2019-05-05T20:51:17.684Z,96585.84
2019-05-05T20:53:48.597Z,96586.33
2019-05-05T20:56:14.911Z,96581.16
2019-05-05T20:58:43.987Z,96584.31
2019-05-05T21:01:11.240Z,96581.06
2019-05-05T21:03:38.439Z,96585.59
2019-05-05T21:06:05.625Z,96588.53
2019-05-05T21:08:34.785Z,96589.57
2019-05-05T21:11:01.786Z,96584.17
2019-05-05T21:13:28.956Z,96585.52
2019-05-05T21:15:56.196Z,96585.28
2019-05-05T21:18:23.898Z,96587.73
2019-05-05T21:20:54.282Z,96587.26
2019-05-05T21:23:34.118Z,96584.66
2019-05-05T21:26:20.068Z,96593.08
2019-05-05T21:28:47.565Z,96594.81
2019-05-05T21:31:14.634Z,96595.92
2019-05-05T21:33:41.991Z,96598.62
2019-05-05T21:36:09.004Z,96596.16
2019-05-05T21:38:36.453Z,96601.56
2019-05-05T21:41:04.397Z,96600.22
2019-05-05T21:43:31.587Z,96603.71
2019-05-05T21:45:58.714Z,96599.11
2019-05-05T21:48:25.609Z,96599.17
2019-05-05T21:50:54.742Z,96592.53
2019-05-05T21:53:24.632Z,96598.07
2019-05-05T21:56:10.340Z,96605.06
2019-05-05T21:58:43.825Z,96599.35
2019-05-05T22:01:14.989Z,96596.89
2019-05-05T22:03:44.251Z,96591.73
2019-05-05T22:06:11.571Z,96592.70
2019-05-05T22:08:38.619Z,96593.87
2019-05-05T22:11:06.131Z,96582.38
2019-05-05T22:13:36.144Z,96591.89
2019-05-05T22:16:04.105Z,96594.75
2019-05-05T22:18:31.623Z,96592.92
2019-05-05T22:21:04.311Z,96592.19
2019-05-05T22:23:30.958Z,96594.64
2019-05-05T22:25:58.490Z,96591.70
2019-05-05T22:28:26.535Z,96589.10
2019-05-05T22:30:55.545Z,96596.89
2019-05-05T22:33:24.666Z,96593.78
2019-05-05T22:35:52.160Z,96590.92
2019-05-05T22:38:19.062Z,96582.75
2019-05-05T22:40:45.999Z,96582.38
2019-05-05T22:43:14.470Z,96577.98
2019-05-05T22:45:44.858Z,96570.45
2019-05-05T22:48:11.373Z,96570.14
2019-05-05T22:50:39.267Z,96566.88
2019-05-05T22:53:06.429Z,96572.28
2019-05-05T22:55:34.385Z,96566.73
2019-05-05T22:58:03.833Z,96566.80
2019-05-05T23:00:34.643Z,96569.33
2019-05-05T23:03:04.474Z,96571.58
2019-05-05T23:05:36.399Z,96566.73
2019-05-05T23:08:04.101Z,96569.98
2019-05-05T23:10:31.052Z,96565.94
2019-05-05T23:12:58.090Z,96567.53
2019-05-05T23:15:25.544Z,96567.77
2019-05-05T23:18:00.520Z,96561.48
2019-05-05T23:20:46.067Z,96558.47
2019-05-05T23:23:15.114Z,96564.59
2019-05-05T23:25:45.731Z,96555.70
2019-05-05T23:28:14.703Z,96553.25
2019-05-05T23:30:44.554Z,96549.66
2019-05-05T23:33:10.978Z,96553.08
2019-05-05T23:35:38.005Z,96557.85
2019-05-05T23:38:05.116Z,96551.66
2019-05-05T23:40:33.968Z,96552.66
2019-05-05T23:43:01.205Z,96552.59
2019-05-05T23:45:28.203Z,96550.45
2019-05-05T23:47:55.338Z,96544.02
2019-05-05T23:50:23.166Z,96542.77
2019-05-05T23:52:50.063Z,96548.16
2019-05-05T23:55:17.386Z,96549.03
2019-05-05T23:57:44.793Z,96550.38
